Latest Weather Observations for Lucas Heights

IDN60901

Issued at 11:45 am EST Friday 22 August 2014 (issued every 10 minutes, with the page automatically refreshed every 10 minutes)

About weather observations | Map of Sydney area stations | Latest observations for Sydney area | Other Formats
Station Details ID: 066023 Name: LUCAS HEIGHTS AWS Lat: -34.05 Lon: 150.98 Height: 140.0 m
Data from the previous 72 hours. | See also: Recent months for locations in New South Wales
Date/Time
EST
Tmp

°C
App
Tmp
°C
Dew
Point
°C
Rel
Hum
%
Delta-T

°C
Wind Press
QNH
hPa
Press
MSL
hPa
Rain
since
9 am
mm
Dir
 
Spd
km/h
Gust
km/h
Spd
kts
Gust
kts
22/11:30am 15.3 12.6 10.2 71 2.7 SE 15 20 8 11 1031.7 - 0.0
22/11:15am 15.6 13.0 10.6 72 2.7 SSE 15 22 8 12 1031.8 - 0.0
22/11:00am 15.3 12.8 11.0 75 2.3 SE 15 20 8 11 1032.0 - 0.0
22/10:45am 14.5 11.9 10.6 77 2.1 SE 15 22 8 12 1032.2 - 0.0
22/10:30am 14.5 11.8 10.3 76 2.2 SE 15 22 8 12 1032.3 - 0.0
22/10:15am 15.0 12.9 11.0 77 2.1 SE 13 22 7 12 1032.3 - 0.0
22/10:00am 14.2 12.0 10.7 79 1.9 SSE 13 22 7 12 1032.4 - 0.0
22/09:45am 13.9 10.5 10.5 80 1.8 SE 19 26 10 14 1032.3 - 0.0
22/09:30am 14.0 11.4 10.8 81 1.7 SE 15 26 8 14 1032.2 - 0.0
22/09:15am 13.9 11.0 11.0 83 1.5 SE 17 22 9 12 1032.2 - 0.0
22/09:00am 13.4 10.4 10.8 84 1.4 SSE 17 24 9 13 1032.1 - 1.4
22/08:45am 13.2 11.0 10.7 85 1.3 SSE 13 24 7 13 1032.0 - 1.4
22/08:30am 13.3 11.1 10.9 85 1.3 S 13 19 7 10 1031.9 - 1.4
22/08:15am 12.8 10.2 10.8 88 1.1 S 15 26 8 14 1031.7 - 1.4
22/08:00am 12.4 9.8 10.7 89 0.9 S 15 22 8 12 1031.4 - 1.4
22/07:45am 11.6 8.5 10.2 91 0.7 S 17 20 9 11 1031.3 - 1.4
22/07:30am 10.8 7.8 9.3 90 0.8 S 15 19 8 10 1031.2 - 1.4
22/07:15am 10.5 7.8 9.0 90 0.7 SSE 13 17 7 9 1031.1 - 1.4
22/07:00am 10.2 7.4 8.6 90 0.8 SSE 13 17 7 9 1030.9 - 1.4
22/06:45am 10.1 7.3 8.5 90 0.8 S 13 15 7 8 1030.7 - 1.4
22/06:30am 10.4 7.7 8.8 90 0.8 S 13 15 7 8 1030.5 - 1.4
22/06:15am 10.6 7.9 9.1 90 0.8 SSE 13 17 7 9 1030.3 - 1.4
22/06:00am 10.6 7.9 9.0 90 0.8 SSE 13 15 7 8 1030.2 - 1.4
22/05:45am 10.6 7.6 9.1 90 0.8 SSE 15 19 8 10 1030.2 - 1.4
22/05:30am 10.4 7.3 8.8 90 0.8 SSE 15 19 8 10 1030.0 - 1.4
22/05:15am 10.4 7.3 8.9 90 0.7 SSE 15 19 8 10 1030.0 - 1.4
22/05:00am 10.5 7.1 9.0 90 0.7 SSE 17 20 9 11 1030.0 - 1.4
22/04:45am 10.6 7.6 9.1 90 0.8 SSE 15 19 8 10 1029.9 - 1.4
22/04:30am 10.5 7.1 9.1 91 0.7 SSE 17 19 9 10 1029.8 - 1.4
22/04:15am 10.6 8.0 9.2 91 0.7 SSE 13 17 7 9 1029.7 - 1.4
22/04:00am 10.9 8.3 9.4 90 0.8 SSE 13 15 7 8 1029.7 - 1.4
22/03:45am 11.1 8.2 9.7 91 0.7 SSE 15 19 8 10 1029.7 - 1.4
22/03:30am 10.9 7.6 9.6 92 0.7 SSE 17 20 9 11 1029.7 - 1.4
22/03:15am 10.5 7.1 9.2 92 0.7 SSE 17 20 9 11 1029.8 - 1.4
22/03:00am 10.2 6.7 8.8 91 0.7 SSE 17 20 9 11 1029.8 - 1.4
22/02:45am 10.1 6.6 8.7 91 0.7 S 17 19 9 10 1029.9 - 1.4
22/02:30am 10.2 7.1 8.8 91 0.7 S 15 17 8 9 1030.1 - 1.4
22/02:15am 10.1 7.0 8.7 91 0.7 S 15 17 8 9 1030.1 - 1.4
22/02:00am 10.1 7.0 8.7 91 0.7 S 15 19 8 10 1030.2 - 1.4
22/01:45am 10.0 6.5 8.6 91 0.7 S 17 19 9 10 1030.3 - 1.4
22/01:30am 10.0 6.5 8.6 91 0.7 S 17 19 9 10 1030.3 - 1.3
22/01:15am 10.0 6.8 8.5 90 0.7 SSE 15 19 8 10 1030.5 - 1.3
22/01:00am 10.1 7.3 8.6 90 0.7 SSE 13 17 7 9 1030.5 - 1.3
22/12:45am 10.3 7.6 8.9 91 0.7 S 13 19 7 10 1030.7 - 1.3
22/12:30am 10.5 7.5 9.1 91 0.7 S 15 20 8 11 1030.7 - 1.3
22/12:15am 10.6 7.2 9.0 90 0.8 S 17 22 9 12 1030.6 - 1.3
22/12:00am 10.6 6.8 9.2 91 0.7 S 19 26 10 14 1030.8 - 1.3
 
Date/Time
EST
Tmp

°C
App
Tmp
°C
Dew
Point
°C
Rel
Hum
%
Delta-T

°C
Wind Press
QNH
hPa
Press
MSL
hPa
Rain
since
9 am
mm
Dir
 
Spd
km/h
Gust
km/h
Spd
kts
Gust
kts
21/11:45pm 10.3 6.8 8.8 90 0.7 SSE 17 24 9 13 1030.8 - 1.3
21/11:30pm 10.4 7.7 8.9 90 0.7 SSE 13 15 7 8 1030.7 - 1.3
21/11:15pm 10.6 7.9 9.1 90 0.8 SSE 13 19 7 10 1030.6 - 1.3
21/11:00pm 10.8 7.8 9.3 90 0.8 S 15 20 8 11 1030.6 - 1.3
21/10:45pm 10.8 7.8 9.3 90 0.8 S 15 20 8 11 1030.5 - 1.3
21/10:30pm 10.8 7.8 9.2 90 0.8 S 15 22 8 12 1030.6 - 1.3
21/10:15pm 10.8 7.4 9.2 90 0.8 S 17 22 9 12 1030.7 - 1.3
21/10:00pm 10.8 7.4 9.1 89 0.9 S 17 22 9 12 1030.8 - 1.3
21/09:45pm 10.8 7.8 9.1 89 0.9 S 15 22 8 12 1030.8 - 1.1
21/09:30pm 11.1 8.1 9.3 89 0.9 S 15 22 8 12 1030.7 - 1.1
21/09:15pm 11.3 7.6 9.5 89 0.9 SSE 19 28 10 15 1030.7 - 1.1
21/09:00pm 11.4 8.5 9.5 88 1.0 SSE 15 24 8 13 1030.6 - 1.1
21/08:45pm 11.3 8.3 9.4 88 1.0 SSE 15 19 8 10 1030.5 - 0.9
21/08:30pm 11.3 7.6 9.4 88 1.0 SSE 19 26 10 14 1030.4 - 0.9
21/08:15pm 11.4 8.1 9.4 87 1.0 SSE 17 22 9 12 1030.3 - 0.9
21/08:00pm 11.5 7.8 9.5 87 1.0 SSE 19 26 10 14 1030.2 - 0.9
21/07:45pm 11.6 8.3 9.6 87 1.0 SSE 17 24 9 13 1030.0 - 0.9
21/07:30pm 11.6 8.3 9.5 87 1.1 SSE 17 26 9 14 1029.9 - 0.9
21/07:15pm 11.8 8.5 9.5 86 1.2 SSE 17 22 9 12 1029.9 - 0.9
21/07:00pm 12.1 8.5 9.8 86 1.2 SSE 19 28 10 15 1029.7 - 0.5
21/06:45pm 12.1 8.9 10.0 87 1.1 SSE 17 24 9 13 1029.5 - 0.5
21/06:30pm 12.2 9.0 10.0 86 1.1 SSE 17 24 9 13 1029.4 - 0.5
21/06:15pm 12.2 9.3 9.8 85 1.2 SSE 15 22 8 12 1029.2 - 0.5
21/06:00pm 12.5 9.6 9.7 83 1.4 SSE 15 26 8 14 1029.1 - 0.4
21/05:45pm 12.9 9.1 9.8 81 1.6 SSE 20 30 11 16 1028.9 - 0.2
21/05:30pm 13.0 9.1 9.6 80 1.7 S 20 30 11 16 1028.6 - 0.0
21/05:15pm 13.4 9.5 9.5 77 2.0 S 20 30 11 16 1028.4 - 0.0
21/05:00pm 13.9 10.3 9.7 76 2.2 SSE 19 26 10 14 1028.3 - 0.0
21/04:45pm 14.0 10.2 9.7 75 2.2 SSE 20 33 11 18 1028.2 - 0.0
21/04:30pm 14.2 10.3 9.6 74 2.4 SSE 20 32 11 17 1028.0 - 0.0
21/04:15pm 14.2 9.6 9.6 74 2.4 SSE 24 35 13 19 1027.9 - 0.0
21/04:00pm 14.3 9.7 9.6 73 2.4 SSE 24 33 13 18 1027.8 - 0.0
21/03:45pm 14.4 9.7 9.3 71 2.6 SSE 24 33 13 18 1027.8 - 0.0
21/03:30pm 14.9 9.9 9.6 70 2.8 SSE 26 37 14 20 1027.7 - 0.0
21/03:15pm 14.8 10.1 9.2 69 2.9 SSE 24 37 13 20 1027.6 - 0.0
21/03:00pm 15.2 10.9 9.2 67 3.1 SSE 22 33 12 18 1027.6 - 0.0
21/02:45pm 15.4 11.5 9.3 67 3.2 SSE 20 33 11 18 1027.7 - 0.0
21/02:30pm 15.4 11.5 9.4 67 3.1 SSE 20 32 11 17 1027.8 - 0.0
21/02:15pm 15.3 11.4 9.3 67 3.1 SE 20 32 11 17 1027.8 - 0.0
21/02:00pm 15.1 11.2 9.6 69 2.9 SE 20 32 11 17 1027.8 - 0.0
21/01:45pm 15.0 10.8 9.9 71 2.7 SSE 22 32 12 17 1028.0 - 0.0
21/01:30pm 14.6 10.3 9.4 71 2.7 SSE 22 33 12 18 1028.1 - 0.0
21/01:15pm 15.2 11.4 9.8 70 2.8 SE 20 30 11 16 1028.1 - 0.0
21/01:00pm 15.4 12.2 10.1 70 2.8 SSE 17 30 9 16 1028.2 - 0.0
21/12:45pm 14.9 11.3 9.8 71 2.7 SE 19 28 10 15 1028.4 - 0.0
21/12:30pm 14.8 10.5 9.3 69 2.8 SE 22 30 12 16 1028.7 - 0.0
21/12:15pm 15.3 11.8 10.1 71 2.7 SSE 19 30 10 16 1028.8 - 0.0
21/12:00pm 14.9 11.2 9.6 70 2.8 SE 19 30 10 16 1028.9 - 0.0
21/11:45am 14.9 11.7 9.8 71 2.7 SE 17 28 9 15 1029.1 - 0.0
21/11:30am 14.7 11.0 9.6 71 2.6 SSE 19 33 10 18 1029.2 - 0.0
21/11:15am 14.6 11.4 10.0 74 2.4 SE 17 26 9 14 1029.4 - 0.0
21/11:00am 13.8 10.2 9.8 77 2.1 SSE 19 26 10 14 1029.6 - 0.0
21/10:45am 13.6 10.3 9.7 77 2.0 SE 17 26 9 14 1029.6 - 0.0
21/10:30am 13.4 10.1 9.5 77 2.0 SE 17 26 9 14 1029.7 - 0.0
21/10:15am 13.5 10.6 9.6 77 2.0 SE 15 22 8 12 1029.6 - 0.0
21/10:00am 13.7 11.3 9.9 78 2.0 SSE 13 19 7 10 1029.6 - 0.0
21/09:45am 13.4 10.6 10.0 80 1.8 S 15 22 8 12 1029.5 - 0.0
21/09:30am 13.5 9.4 10.2 80 1.7 SSE 22 30 12 16 1029.4 - 0.0
21/09:15am 13.3 10.2 10.3 82 1.6 SSE 17 26 9 14 1029.3 - 0.0
21/09:00am 12.7 9.2 10.1 84 1.3 SSE 19 26 10 14 1029.2 - 0.0
21/08:45am 12.1 8.5 9.7 85 1.2 S 19 24 10 13 1029.2 - 0.0
21/08:30am 11.7 7.8 9.6 87 1.1 S 20 28 11 15 1029.1 - 0.0
21/08:15am 11.2 7.9 9.4 89 0.9 S 17 22 9 12 1029.1 - 0.0
21/08:00am 10.7 7.3 9.0 89 0.8 S 17 22 9 12 1029.0 - 0.0
21/07:45am 10.3 6.8 8.6 89 0.8 S 17 24 9 13 1028.8 - 0.0
21/07:30am 9.8 6.5 8.1 89 0.8 S 15 19 8 10 1028.7 - 0.0
21/07:15am 9.4 6.0 7.6 88 0.9 S 15 20 8 11 1028.5 - 0.0
21/07:00am 9.4 5.6 7.6 88 0.9 S 17 20 9 11 1028.3 - 0.0
21/06:45am 9.6 6.2 7.7 88 0.9 S 15 20 8 11 1028.3 - 0.0
21/06:30am 9.6 5.8 7.6 87 1.0 S 17 22 9 12 1028.2 - 0.0
21/06:15am 9.8 6.4 7.7 87 1.0 S 15 20 8 11 1028.0 - 0.0
21/06:00am 9.8 6.4 7.7 87 1.0 S 15 20 8 11 1027.9 - 0.0
21/05:45am 9.9 6.9 7.7 86 1.1 S 13 22 7 12 1027.7 - 0.0
21/05:30am 9.7 6.7 7.5 86 1.1 S 13 19 7 10 1027.6 - 0.0
21/05:15am 9.8 6.4 7.5 85 1.1 S 15 20 8 11 1027.4 - 0.0
21/05:00am 9.9 6.9 7.6 85 1.1 S 13 22 7 12 1027.4 - 0.0
21/04:45am 9.9 6.8 7.3 84 1.2 S 13 19 7 10 1027.4 - 0.0
21/04:30am 10.0 6.9 7.1 82 1.4 S 13 19 7 10 1027.5 - 0.0
21/04:15am 10.1 6.5 6.7 79 1.6 SSE 15 20 8 11 1027.5 - 0.0
21/04:00am 10.2 6.5 6.5 78 1.7 SSE 15 22 8 12 1027.4 - 0.0
21/03:45am 10.0 6.3 6.1 77 1.8 S 15 22 8 12 1027.3 - 0.0
21/03:30am 10.2 6.5 6.1 76 1.9 S 15 20 8 11 1027.2 - 0.0
21/03:15am 9.9 6.5 5.9 76 1.9 S 13 15 7 8 1027.2 - 0.0
21/03:00am 10.1 6.7 6.0 76 1.9 S 13 19 7 10 1027.1 - 0.0
21/02:45am 10.2 6.9 6.2 76 1.9 S 13 19 7 10 1027.0 - 0.0
21/02:30am 10.0 5.9 6.0 76 1.9 S 17 22 9 12 1027.0 - 0.0
21/02:15am 10.2 6.4 5.9 74 2.0 S 15 22 8 12 1027.0 - 0.0
21/02:00am 10.3 6.6 6.1 75 2.0 S 15 20 8 11 1027.1 - 0.0
21/01:45am 10.2 6.1 6.2 76 1.9 SSW 17 24 9 13 1027.2 - 0.0
21/01:30am 9.7 5.9 5.9 77 1.8 S 15 22 8 12 1027.3 - 0.0
21/01:15am 9.9 5.8 6.2 78 1.7 S 17 24 9 13 1027.3 - 0.0
21/01:00am 9.8 5.7 6.1 78 1.7 S 17 24 9 13 1027.3 - 0.0
21/12:45am 9.8 6.1 6.1 78 1.7 S 15 24 8 13 1027.3 - 0.0
21/12:30am 10.0 6.3 6.2 77 1.8 S 15 22 8 12 1027.3 - 0.0
21/12:15am 10.2 6.1 6.4 77 1.8 S 17 24 9 13 1027.2 - 0.0
21/12:00am 10.1 5.7 6.5 78 1.7 S 19 26 10 14 1027.3 - 0.0
 
Date/Time
EST
Tmp

°C
App
Tmp
°C
Dew
Point
°C
Rel
Hum
%
Delta-T

°C
Wind Press
QNH
hPa
Press
MSL
hPa
Rain
since
9 am
mm
Dir
 
Spd
km/h
Gust
km/h
Spd
kts
Gust
kts
20/11:45pm 10.1 5.7 6.5 78 1.7 S 19 24 10 13 1027.3 - 0.0
20/11:30pm 10.0 5.5 6.3 78 1.7 S 19 26 10 14 1027.4 - 0.0
20/11:15pm 10.3 6.2 6.4 77 1.8 S 17 22 9 12 1027.4 - 0.0
20/11:00pm 10.7 6.3 6.7 76 1.9 S 19 24 10 13 1027.4 - 0.0
20/10:45pm 10.5 5.6 6.8 78 1.8 S 22 28 12 15 1027.3 - 0.0
20/10:30pm 10.6 6.2 6.7 77 1.9 S 19 28 10 15 1027.3 - 0.0
20/10:15pm 10.6 5.7 6.8 77 1.8 S 22 28 12 15 1027.3 - 0.0
20/10:00pm 10.5 6.1 6.6 77 1.8 S 19 26 10 14 1027.3 - 0.0
20/09:45pm 10.7 6.1 6.7 76 1.9 S 20 28 11 15 1027.4 - 0.0
20/09:30pm 10.8 5.5 6.7 76 1.9 SSE 24 26 13 14 1027.4 - 0.0
20/09:15pm 10.7 5.8 6.7 76 1.9 SSE 22 30 12 16 1027.3 - 0.0
20/09:00pm 10.7 6.6 6.4 75 2.0 S 17 24 9 13 1027.3 - 0.0
20/08:45pm 10.9 6.9 6.5 74 2.1 S 17 24 9 13 1027.2 - 0.0
20/08:30pm 10.9 6.8 6.3 73 2.2 S 17 22 9 12 1027.1 - 0.0
20/08:15pm 11.3 6.9 6.6 73 2.2 S 19 26 10 14 1027.0 - 0.0
20/08:00pm 11.5 6.6 6.7 72 2.3 S 22 30 12 16 1026.9 - 0.0
20/07:45pm 11.6 6.7 6.8 72 2.3 SSE 22 32 12 17 1026.9 - 0.0
20/07:30pm 11.5 6.9 6.7 72 2.3 S 20 26 11 14 1026.7 - 0.0
20/07:15pm 11.8 7.5 6.8 71 2.4 S 19 26 10 14 1026.6 - 0.0
20/07:00pm 11.8 6.9 6.8 71 2.4 SSE 22 30 12 16 1026.4 - 0.0
20/06:45pm 11.9 7.3 6.7 70 2.5 SSE 20 26 11 14 1026.3 - 0.0
20/06:30pm 12.1 7.5 6.7 69 2.6 SSE 20 30 11 16 1026.2 - 0.0
20/06:15pm 12.2 6.9 6.7 69 2.6 SSE 24 32 13 17 1026.1 - 0.0
20/06:00pm 12.2 7.2 6.6 68 2.7 SSE 22 33 12 18 1025.9 - 0.0
20/05:45pm 12.4 7.8 6.7 68 2.7 SSE 20 30 11 16 1025.7 - 0.0
20/05:30pm 12.8 7.9 6.8 67 2.9 SSE 22 33 12 18 1025.6 - 0.0
20/05:15pm 13.2 8.7 6.9 65 3.1 SSE 20 30 11 16 1025.4 - 0.0
20/05:00pm 13.4 8.9 6.9 65 3.2 SSE 20 30 11 16 1025.2 - 0.0
20/04:45pm 13.8 9.3 6.9 63 3.4 SSE 20 32 11 17 1025.1 - 0.0
20/04:30pm 14.2 9.7 7.0 62 3.5 SSE 20 32 11 17 1025.1 - 0.0
20/04:15pm 13.9 9.0 6.7 62 3.5 SSE 22 37 12 20 1025.0 - 0.0
20/04:00pm 13.3 8.6 6.2 62 3.4 SSE 20 30 11 16 1024.9 - 0.0
20/03:45pm 13.3 8.2 5.8 60 3.6 SSE 22 33 12 18 1024.9 - 0.0
20/03:30pm 13.7 9.1 5.8 59 3.8 SSE 19 30 10 16 1024.7 - 0.0
20/03:15pm 14.1 9.0 6.1 58 3.8 S 22 33 12 18 1024.6 - 0.0
20/03:00pm 13.4 8.9 5.9 60 3.6 S 19 28 10 15 1024.6 - 0.0
20/02:45pm 13.7 8.6 6.0 59 3.7 SSE 22 33 12 18 1024.5 - 0.0
20/02:30pm 14.1 9.5 6.4 60 3.7 SSE 20 37 11 20 1024.5 - 0.0
20/02:15pm 13.9 9.3 6.5 61 3.6 SSE 20 33 11 18 1024.4 - 0.0
20/02:00pm 13.7 8.2 6.1 60 3.6 SSE 24 33 13 18 1024.4 - 0.0
20/01:45pm 14.0 9.4 6.5 60 3.6 SSE 20 30 11 16 1024.4 - 0.0
20/01:30pm 14.2 9.2 6.4 59 3.8 SSE 22 32 12 17 1024.5 - 0.0
20/01:15pm 14.5 9.9 6.5 58 3.9 SSE 20 30 11 16 1024.5 - 0.0
20/01:00pm 14.9 11.0 7.0 59 3.9 SSE 17 26 9 14 1024.6 - 0.0
20/12:45pm 14.6 10.2 6.6 58 3.9 SSE 19 26 10 14 1024.7 - 0.0
20/12:30pm 14.6 11.1 7.1 60 3.7 S 15 28 8 15 1024.9 - 0.0
20/12:15pm 14.1 9.7 6.5 60 3.7 S 19 33 10 18 1025.1 - 0.0
20/12:00pm 14.8 10.9 7.0 59 3.8 S 17 28 9 15 1025.1 - 0.0
20/11:45am 14.1 10.2 7.2 63 3.4 S 17 26 9 14 1025.3 - 0.0
20/11:30am 13.2 9.1 6.4 63 3.3 SSE 17 26 9 14 1025.4 - 0.0
20/11:15am 13.4 8.8 6.5 63 3.3 S 20 28 11 15 1025.5 - 0.0
20/11:00am 13.0 8.0 6.4 64 3.2 S 22 33 12 18 1025.5 - 0.0
20/10:45am 12.9 7.9 6.4 64 3.1 SSE 22 33 12 18 1025.4 - 0.0
20/10:30am 13.3 8.7 6.7 64 3.2 S 20 30 11 16 1025.3 - 0.0
20/10:15am 13.3 8.7 6.7 64 3.2 S 20 33 11 18 1025.2 - 0.0
20/10:00am 13.9 9.7 7.3 64 3.3 S 19 33 10 18 1025.2 - 0.0
20/09:45am 13.6 9.8 7.7 67 2.9 SSW 17 30 9 16 1025.1 - 0.0
20/09:30am 12.8 9.1 7.8 71 2.5 SSW 17 26 9 14 1025.1 - 0.0
20/09:15am 12.1 7.8 7.8 75 2.1 SSW 20 28 11 15 1025.0 - 0.0
20/09:00am 11.6 7.5 7.9 78 1.8 SSW 19 30 10 16 1025.0 - 7.0
20/08:45am 11.0 7.1 7.3 78 1.8 SW 17 24 9 13 1024.9 - 7.0
20/08:30am 10.6 6.3 6.9 78 1.8 SW 19 30 10 16 1024.9 - 7.0
20/08:15am 10.2 5.9 6.8 79 1.6 WSW 19 28 10 15 1024.8 - 7.0
20/08:00am 9.2 4.7 5.9 80 1.5 WSW 19 26 10 14 1024.6 - 7.0
20/07:45am 9.2 4.5 6.1 81 1.4 WSW 20 26 11 14 1024.4 - 7.0
20/07:30am 8.8 4.1 5.9 82 1.3 SW 20 26 11 14 1024.4 - 7.0
20/07:15am 8.6 3.5 5.9 83 1.2 SW 22 28 12 15 1024.2 - 7.0
20/07:00am 8.3 3.2 5.8 84 1.1 WSW 22 26 12 14 1024.0 - 7.0
20/06:45am 8.1 3.3 5.6 84 1.1 WSW 20 24 11 13 1023.9 - 7.0
20/06:30am 8.0 2.8 5.4 84 1.2 WSW 22 26 12 14 1023.6 - 7.0
20/06:15am 8.1 2.9 5.4 83 1.2 SW 22 30 12 16 1023.4 - 7.0
20/06:00am 8.1 2.8 5.0 81 1.4 SW 22 28 12 15 1023.3 - 7.0
20/05:45am 8.3 3.0 4.9 79 1.5 WSW 22 30 12 16 1023.1 - 7.0
20/05:30am 8.3 3.0 4.9 79 1.5 WSW 22 28 12 15 1022.9 - 7.0
20/05:15am 8.5 2.8 4.9 78 1.6 WSW 24 28 13 15 1022.8 - 7.0
20/05:00am 8.5 3.2 5.0 78 1.6 WSW 22 28 12 15 1022.7 - 7.0
20/04:45am 8.3 2.6 4.8 78 1.6 WSW 24 28 13 15 1022.7 - 7.0
20/04:30am 8.4 3.1 5.0 79 1.5 WSW 22 26 12 14 1022.6 - 7.0
20/04:15am 8.3 3.0 5.0 80 1.5 SW 22 26 12 14 1022.5 - 7.0
20/04:00am 8.2 2.9 4.8 79 1.5 SW 22 24 12 13 1022.3 - 7.0
20/03:45am 8.1 3.1 4.6 78 1.6 SW 20 22 11 12 1022.0 - 7.0
20/03:30am 8.2 3.2 4.5 77 1.6 SW 20 28 11 15 1021.9 - 7.0
20/03:15am 8.4 3.0 4.7 77 1.6 SW 22 26 12 14 1021.8 - 7.0
20/03:00am 8.3 3.3 4.5 77 1.7 SW 20 26 11 14 1021.8 - 7.0
20/02:45am 8.4 3.4 4.5 76 1.7 SW 20 24 11 13 1021.8 - 7.0
20/02:30am 8.5 3.1 4.5 76 1.8 SW 22 26 12 14 1021.8 - 7.0
20/02:15am 8.7 3.7 4.6 75 1.8 SSW 20 26 11 14 1021.9 - 7.0
20/02:00am 8.7 3.3 4.6 75 1.8 SSW 22 30 12 16 1021.9 - 7.0
20/01:45am 8.7 2.2 4.6 75 1.8 SW 28 33 15 18 1021.9 - 7.0
20/01:30am 8.6 3.2 4.5 75 1.8 SSW 22 30 12 16 1021.9 - 7.0
20/01:15am 9.2 4.2 4.6 73 2.1 SW 20 30 11 16 1021.9 - 7.0
20/01:00am 9.9 5.5 5.0 71 2.2 SSW 17 24 9 13 1021.9 - 7.0
20/12:45am 10.2 5.9 5.1 70 2.3 SSW 17 22 9 12 1021.8 - 7.0
20/12:30am 10.4 5.7 5.2 70 2.4 SSW 19 33 10 18 1021.8 - 7.0
20/12:15am 10.5 5.6 5.0 69 2.5 SSW 20 32 11 17 1021.9 - 7.0
20/12:00am 10.8 6.1 5.2 68 2.6 SSW 19 30 10 16 1021.9 - 7.0
 
Date/Time
EST
Tmp

°C
App
Tmp
°C
Dew
Point
°C
Rel
Hum
%
Delta-T

°C
Wind Press
QNH
hPa
Press
MSL
hPa
Rain
since
9 am
mm
Dir
 
Spd
km/h
Gust
km/h
Spd
kts
Gust
kts
19/11:45pm 11.2 6.3 5.3 67 2.7 S 20 32 11 17 1021.8 - 7.0
19/11:30pm 11.2 6.0 5.4 67 2.7 S 22 35 12 19 1021.7 - 7.0
19/11:15pm 11.3 5.7 5.6 68 2.7 S 24 37 13 20 1021.6 - 7.0
19/11:00pm 11.5 5.6 5.8 68 2.7 S 26 44 14 24 1021.5 - 7.0
19/10:45pm 11.7 4.7 6.0 68 2.7 S 32 48 17 26 1021.4 - 7.0
19/10:30pm 11.7 5.4 5.9 67 2.7 S 28 46 15 25 1021.4 - 7.0
19/10:15pm 11.8 5.9 5.9 67 2.8 S 26 39 14 21 1021.5 - 7.0
19/10:00pm 11.9 6.4 6.0 67 2.8 S 24 41 13 22 1021.4 - 7.0
19/09:45pm 11.9 5.3 6.0 67 2.8 S 30 46 16 25 1021.3 - 7.0
19/09:30pm 11.8 5.6 6.1 68 2.7 S 28 41 15 22 1021.3 - 7.0
19/09:15pm 11.8 6.0 6.1 68 2.7 S 26 46 14 25 1021.3 - 7.0
19/09:00pm 12.0 5.5 6.3 68 2.7 S 30 50 16 27 1021.3 - 7.0
19/08:45pm 12.0 5.9 6.6 69 2.6 S 28 44 15 24 1021.2 - 7.0
19/08:30pm 12.0 5.9 6.8 70 2.5 S 28 46 15 25 1021.1 - 7.0
19/08:15pm 12.1 6.5 7.0 71 2.5 S 26 46 14 25 1021.0 - 7.0
19/08:00pm 12.2 5.8 7.1 71 2.5 S 30 44 16 24 1020.9 - 7.0
19/07:45pm 12.3 6.3 7.1 70 2.5 S 28 46 15 25 1020.8 - 7.0
19/07:30pm 12.3 5.4 7.2 71 2.5 S 33 50 18 27 1020.6 - 7.0
19/07:15pm 12.2 6.7 7.4 72 2.3 S 26 44 14 24 1020.5 - 7.0
19/07:00pm 12.2 5.9 7.6 73 2.3 S 30 44 16 24 1020.2 - 7.0
19/06:45pm 12.1 6.2 7.7 74 2.2 S 28 43 15 23 1019.9 - 7.0
19/06:30pm 11.9 6.9 7.9 76 2.0 S 24 44 13 24 1019.6 - 7.0
19/06:15pm 11.7 6.7 8.1 78 1.8 S 24 37 13 20 1019.4 - 7.0
19/06:00pm 11.6 6.6 8.1 79 1.7 S 24 39 13 21 1019.1 - 7.0
19/05:45pm 11.8 5.2 8.5 80 1.6 S 33 56 18 30 1018.9 - 7.0
19/05:30pm 11.7 5.2 9.0 83 1.4 S 33 52 18 28 1018.6 - 7.0
19/05:15pm 11.5 6.0 9.2 86 1.2 S 28 43 15 23 1018.5 - 7.0
19/05:00pm 11.6 6.6 9.4 86 1.1 S 26 44 14 24 1018.4 - 7.0
19/04:45pm 11.8 6.9 9.8 87 1.0 S 26 44 14 24 1018.3 - 7.0
19/04:30pm 11.7 6.4 9.9 89 0.9 S 28 43 15 23 1018.0 - 6.8
19/04:15pm 11.6 6.7 9.9 89 0.9 S 26 41 14 22 1017.7 - 6.8
19/04:00pm 11.5 7.3 9.8 89 0.9 S 22 41 12 22 1017.6 - 6.8
19/03:45pm 11.4 7.2 9.7 89 0.9 S 22 33 12 18 1017.6 - 6.7
19/03:30pm 11.5 6.5 9.7 89 0.9 S 26 39 14 21 1017.6 - 6.3
19/03:15pm 11.8 6.5 9.9 88 1.0 S 28 54 15 29 1017.4 - 5.4
19/03:00pm 12.0 7.9 10.0 87 1.0 S 22 35 12 19 1017.3 - 5.0
19/02:45pm 12.0 6.3 9.9 87 1.1 S 30 52 16 28 1017.0 - 4.5
19/02:30pm 12.6 6.7 10.6 88 1.0 S 32 61 17 33 1016.8 - 4.3
19/02:15pm 12.3 7.9 10.5 89 0.9 S 24 44 13 24 1016.6 - 4.1
19/02:00pm 12.0 7.8 9.9 87 1.1 S 22 37 12 20 1016.6 - 4.0
19/01:45pm 12.2 6.9 9.8 85 1.2 S 28 50 15 27 1016.4 - 3.1
19/01:30pm 12.6 6.6 10.2 85 1.2 S 32 57 17 31 1016.3 - 2.0
19/01:15pm 12.6 7.6 9.7 82 1.5 S 26 41 14 22 1016.2 - 1.4
19/01:00pm 14.0 7.2 9.4 74 2.4 S 35 54 19 29 1016.1 - 0.7
19/12:45pm 15.6 9.0 9.9 69 3.0 S 35 61 19 33 1015.8 - 0.0
19/12:30pm 15.6 9.6 10.0 69 2.9 S 32 52 17 28 1015.8 - 0.0
19/12:15pm 15.8 9.7 10.4 70 2.9 S 33 57 18 31 1015.9 - 0.0
19/12:00pm 15.4 9.1 11.0 75 2.4 S 35 57 19 31 1016.0 - 0.0

Latest Capital City Observations: Canberra | Sydney | Melbourne | Brisbane | Adelaide | Perth | Hobart | Darwin

Other Formats:

Comma delimited format used in spreadsheet applications
http://www.bom.gov.au/fwo/IDN60901/IDN60901.95757.axf

JavaScript Object Notation format (JSON) in row-major order
http://www.bom.gov.au/fwo/IDN60901/IDN60901.95757.json